MIDDLE PEAK CA US current weather conditions

sailwx.info

Wind from 353 at 7 knots gusting 12

Air temperature 18.3° C
Dewpoint 0.4° C

Last reported at 2019-Nov-17 06:36 UTC.
Time now 2019-Nov-17 07:26 UTC

Location: N 37°56' W 122°35'.
View on Google Maps.

See reports from other nearby stations

  
Tides and Currents Weather Stations Pressure Air Temp Water Temp Dewpoint Dewpoint Depression Visibility Wind Speed Wind Dir Waves Ship Positions
date/time (UTC)wind fromknots sea level pressurealtimeterstation pressurevisibilityair tempwater tempwave heightnotes
2019-Nov-17 06:36 353 7 gusting 12 18.3
2019-Nov-17 05:36 330 8 gusting 12 16.7
2019-Nov-17 04:36 328 10 gusting 13 16.7
2019-Nov-17 03:36 323 8 gusting 11 15.6
2019-Nov-17 02:36 319 9 gusting 13 15.6
2019-Nov-17 01:36 314 10 gusting 13 15.6
2019-Nov-17 00:36 323 8 gusting 11 16.1
2019-Nov-16 23:36 325 6 gusting 11 17.8
2019-Nov-16 22:36 328 6 gusting 10 18.3
2019-Nov-16 21:36 324 6 gusting 11 18.9
2019-Nov-16 20:36 345 6 gusting 12 18.3
2019-Nov-16 19:36 348 6 gusting 10 18.3
2019-Nov-16 18:36 356 6 gusting 10 17.8
2019-Nov-16 17:36 013 5 gusting 10 17.8
2019-Nov-16 16:36 359 6 gusting 8 16.7
2019-Nov-16 15:36 352 6 gusting 11 15.0
2019-Nov-16 14:36 324 7 gusting 11 12.8
2019-Nov-16 13:36 329 7 gusting 11 12.8
2019-Nov-16 12:36 333 10 gusting 14 13.3
2019-Nov-16 11:36 333 12 gusting 19 12.8
2019-Nov-16 10:36 330 13 gusting 15 12.2
2019-Nov-16 09:36 332 11 gusting 13 12.2
2019-Nov-16 08:36 329 9 gusting 12 11.7
2019-Nov-16 07:36 341 8 gusting 12 12.2
2019-Nov-16 06:36 340 10 gusting 14 11.7
2019-Nov-16 05:36 326 12 gusting 16 10.6
2019-Nov-16 04:36 330 9 gusting 13 11.1
2019-Nov-16 03:36 323 9 gusting 15 10.6
2019-Nov-16 02:36 324 8 gusting 15 11.1
2019-Nov-16 01:36 327 9 gusting 14 11.1
2019-Nov-16 00:36 328 11 gusting 15 11.7
2019-Nov-15 23:36 330 11 gusting 16 12.8
2019-Nov-15 22:36 330 9 gusting 14 13.3
2019-Nov-15 21:36 331 8 gusting 13 13.3
2019-Nov-15 20:36 327 7 gusting 13 12.8
2019-Nov-15 19:36 331 6 gusting 12 11.7
2019-Nov-15 18:36 329 6 gusting 12 11.7
2019-Nov-15 17:36 328 8 gusting 13 11.1
2019-Nov-15 16:36 330 7 gusting 13 10.0
2019-Nov-15 15:36 329 10 gusting 13 9.4
2019-Nov-15 14:36 329 9 gusting 13 8.9
2019-Nov-15 13:36 325 7 gusting 13 8.9
2019-Nov-15 12:36 326 8 gusting 14 8.3
2019-Nov-15 11:36 320 10 gusting 15 8.3
2019-Nov-15 10:36 315 10 gusting 14 8.3
2019-Nov-15 09:36 309 9 gusting 17 7.8
2019-Nov-15 08:36 299 9 gusting 13 7.8
2019-Nov-15 07:36 299 4 gusting 10 7.2